Terminal Aerodrome Forecast
Issued by NWS Quad Cities IA IL

Home | Current Version | Previous Version | Text Only | Print | Product List | Glossary On
Versions: 1 2 3 4 5 6 7 8 9 10 11 12 13 14 15 16 17 18 19 20 21 22 23 24
332
FTUS43 KDVN 102328
TAFMLI
TAF
KMLI 102328Z 1100/1124 33008KT P6SM SKC
     FM110800 24004KT P6SM SCT120
     FM111300 19006KT P6SM SCT120
     FM111900 28016G24KT P6SM OVC080
     FM112200 30015G22KT P6SM SCT030 OVC080=

USA.gov is the U.S. government's official web portal to all federal, state and local government web resources and services.